Time;durP1;ratioP1;P1;durP2;ratioP2;P2;SDS_P1;SDS_P2;PMS_P1;PMS_P2;Temp;Humidity;BMP_temperature;BMP_pressure;BME280_temperature;BME280_humidity;BME280_pressure;Samples;Min_cycle;Max_cycle;Signal;HPM_P1;HPM_P2
2024/04/24 01:16:12;;;;;;;6.55;0.90;;;4.40;99.90;;;;;;6373156;22;20018;-66
2024/04/24 01:18:47;;;;;;;5.97;1.00;;;4.40;99.90;;;;;;6370813;22;20051;-66
2024/04/24 01:21:14;;;;;;;7.47;1.47;;;4.40;99.90;;;;;;6372448;22;20014;-66
2024/04/24 01:23:40;;;;;;;9.27;1.17;;;4.40;99.90;;;;;;6371529;22;20443;-66
2024/04/24 01:26:15;;;;;;;6.75;0.98;;;4.40;99.90;;;;;;6373147;22;20015;-66
2024/04/24 01:28:41;;;;;;;6.60;0.98;;;4.40;99.90;;;;;;6371085;22;20003;-66
2024/04/24 01:31:07;;;;;;;7.20;1.10;;;4.40;99.90;;;;;;6372672;22;20014;-66
2024/04/24 01:33:33;;;;;;;9.45;1.35;;;4.40;99.90;;;;;;6371583;22;20017;-66
2024/04/24 01:35:58;;;;;;;6.10;0.82;;;4.40;99.90;;;;;;6373023;22;19999;-66
2024/04/24 01:38:24;;;;;;;7.57;1.00;;;4.40;99.90;;;;;;6369718;22;20003;-66
2024/04/24 01:40:50;;;;;;;5.72;0.98;;;4.40;99.90;;;;;;6369944;22;20003;-66
2024/04/24 01:43:16;;;;;;;7.68;1.02;;;4.50;99.90;;;;;;6370683;22;20323;-66
2024/04/24 01:45:42;;;;;;;4.47;0.93;;;4.50;99.90;;;;;;6372944;22;20299;-66
2024/04/24 01:48:07;;;;;;;10.30;1.42;;;4.50;99.90;;;;;;6370739;22;20003;-66
2024/04/24 01:50:33;;;;;;;6.65;0.50;;;4.50;99.90;;;;;;6370790;22;20399;-66
2024/04/24 01:52:59;;;;;;;5.70;0.73;;;4.50;99.90;;;;;;6371503;22;20048;-66
2024/04/24 01:55:25;;;;;;;8.27;1.15;;;4.60;99.90;;;;;;6374355;22;20078;-66
2024/04/24 01:57:50;;;;;;;5.47;1.15;;;4.60;99.90;;;;;;6373547;22;20378;-66
2024/04/24 02:00:16;;;;;;;7.47;1.38;;;4.60;99.90;;;;;;6373888;22;20055;-66
2024/04/24 02:02:42;;;;;;;9.05;1.00;;;4.60;99.90;;;;;;6374165;22;20530;-66
2024/04/24 02:05:08;;;;;;;6.18;0.95;;;4.60;99.90;;;;;;6373357;22;20003;-66
2024/04/24 02:07:34;;;;;;;9.60;1.13;;;4.50;99.90;;;;;;6371689;22;20003;-66
2024/04/24 02:09:59;;;;;;;6.28;0.93;;;4.50;99.90;;;;;;6372675;22;20314;-66
2024/04/24 02:12:25;;;;;;;6.45;1.17;;;4.50;99.90;;;;;;6373557;22;20017;-66
2024/04/24 02:14:51;;;;;;;6.65;0.80;;;4.60;99.90;;;;;;6372213;22;20017;-66
2024/04/24 02:17:16;;;;;;;6.25;1.02;;;4.60;99.90;;;;;;6374428;22;20003;-66
2024/04/24 02:19:42;;;;;;;9.52;1.92;;;4.60;99.90;;;;;;6372226;22;19999;-66
2024/04/24 02:22:09;;;;;;;7.75;1.10;;;4.60;99.90;;;;;;6373677;22;19999;-66
2024/04/24 02:27:20;;;;;;;12.47;1.20;;;4.50;99.90;;;;;;6373550;22;20031;-66
2024/04/24 02:29:45;;;;;;;9.02;2.13;;;4.60;99.90;;;;;;6371971;22;20003;-66
2024/04/24 02:32:11;;;;;;;7.60;1.50;;;4.60;99.90;;;;;;6374396;22;20439;-66
2024/04/24 02:34:37;;;;;;;13.20;2.33;;;4.70;99.90;;;;;;6374185;22;20405;-66
2024/04/24 02:37:04;;;;;;;7.47;1.20;;;4.70;99.90;;;;;;6375023;22;20018;-66
2024/04/24 02:39:29;;;;;;;8.85;1.50;;;4.70;99.90;;;;;;6372351;22;20145;-66
2024/04/24 02:41:55;;;;;;;8.05;1.52;;;4.70;99.90;;;;;;6374069;22;20018;-66
2024/04/24 02:44:21;;;;;;;9.73;1.33;;;4.70;99.90;;;;;;6374152;22;20323;-66
2024/04/24 02:46:46;;;;;;;9.55;1.75;;;4.70;99.90;;;;;;6374692;22;20014;-66
2024/04/24 02:49:12;;;;;;;8.88;0.85;;;4.70;99.90;;;;;;6372868;22;20007;-66
2024/04/24 02:51:38;;;;;;;8.32;1.02;;;4.60;99.90;;;;;;6374940;22;19999;-66
2024/04/24 02:54:04;;;;;;;10.60;1.27;;;4.60;99.90;;;;;;6373740;22;20014;-66
2024/04/24 02:56:29;;;;;;;7.70;1.25;;;4.60;99.90;;;;;;6374319;22;20011;-66
2024/04/24 02:58:55;;;;;;;7.15;1.20;;;4.60;99.90;;;;;;6373113;22;20003;-66
2024/04/24 03:01:21;;;;;;;8.18;1.58;;;4.60;99.90;;;;;;6373524;22;20003;-66
2024/04/24 03:03:46;;;;;;;6.18;1.05;;;4.60;99.90;;;;;;6373668;22;20394;-66
2024/04/24 03:06:12;;;;;;;7.80;1.75;;;4.60;99.90;;;;;;6374878;22;20026;-66
2024/04/24 03:08:38;;;;;;;9.00;1.30;;;4.50;99.90;;;;;;6372924;22;20015;-66
2024/04/24 03:11:04;;;;;;;7.63;1.00;;;4.60;99.90;;;;;;6373789;22;20087;-66
2024/04/24 03:13:49;;;;;;;6.70;0.82;;;4.50;99.90;;;;;;6338102;22;20431;-66
2024/04/24 03:16:15;;;;;;;4.70;0.98;;;4.50;99.90;;;;;;6374410;22;20003;-66
2024/04/24 03:18:44;;;;;;;6.70;1.00;;;4.50;99.90;;;;;;6331321;22;20350;-66
2024/04/24 03:21:19;;;;;;;7.15;1.10;;;4.50;99.90;;;;;;6373770;22;20081;-66
2024/04/24 03:23:45;;;;;;;6.30;0.60;;;4.50;99.90;;;;;;6373297;22;20018;-66
2024/04/24 03:26:10;;;;;;;3.58;0.75;;;4.40;99.90;;;;;;6373932;22;20346;-66
2024/04/24 03:28:38;;;;;;;3.22;0.85;;;4.40;99.90;;;;;;6373773;22;20030;-66
2024/04/24 03:31:04;;;;;;;7.15;1.10;;;4.40;99.90;;;;;;6370737;22;20446;-66
2024/04/24 03:33:29;;;;;;;4.88;0.68;;;4.40;99.90;;;;;;6373323;22;20003;-66
2024/04/24 03:35:55;;;;;;;5.13;0.70;;;4.40;99.90;;;;;;6373800;22;20014;-66
2024/04/24 03:38:21;;;;;;;9.05;0.88;;;4.50;99.90;;;;;;6372869;22;20079;-66
2024/04/24 03:40:46;;;;;;;6.97;1.38;;;4.50;99.90;;;;;;6373288;22;20004;-66
2024/04/24 03:43:12;;;;;;;9.00;1.15;;;4.40;99.90;;;;;;6373862;22;20015;-66
2024/04/24 03:45:38;;;;;;;7.40;0.88;;;4.50;99.90;;;;;;6374107;22;20019;-66
2024/04/24 03:48:04;;;;;;;6.35;1.25;;;4.50;99.90;;;;;;6371637;22;20002;-66
2024/04/24 03:50:32;;;;;;;7.30;0.85;;;4.50;99.90;;;;;;6372611;22;20042;-66
2024/04/24 03:53:02;;;;;;;6.38;1.13;;;4.50;99.90;;;;;;6373163;22;20023;-66
2024/04/24 03:55:28;;;;;;;6.90;0.98;;;4.50;99.90;;;;;;6373210;22;20013;-66
2024/04/24 03:57:54;;;;;;;10.85;1.60;;;4.50;99.90;;;;;;6373015;22;20011;-66
2024/04/24 04:00:19;;;;;;;9.50;1.08;;;4.50;99.90;;;;;;6372437;22;20338;-66
2024/04/24 04:02:45;;;;;;;9.55;1.08;;;4.50;99.90;;;;;;6371911;22;20003;-66
2024/04/24 04:05:12;;;;;;;8.40;1.08;;;4.40;99.90;;;;;;6370818;22;20003;-66
2024/04/24 04:07:37;;;;;;;10.32;1.58;;;4.50;99.90;;;;;;6372158;22;20010;-66
2024/04/24 04:10:03;;;;;;;10.90;1.90;;;4.50;99.90;;;;;;6371979;22;20363;-66
2024/04/24 04:12:29;;;;;;;12.30;1.58;;;4.40;99.90;;;;;;6372922;22;20368;-66
2024/04/24 04:14:55;;;;;;;10.60;2.30;;;4.50;99.90;;;;;;6371624;22;20393;-66
2024/04/24 04:17:20;;;;;;;11.90;1.40;;;4.50;99.90;;;;;;6372127;22;20027;-66
2024/04/24 04:19:46;;;;;;;9.00;1.05;;;4.50;99.90;;;;;;6371468;22;20031;-66
2024/04/24 04:22:12;;;;;;;8.75;1.20;;;4.60;99.90;;;;;;6371874;22;20014;-66
2024/04/24 04:24:37;;;;;;;9.63;1.05;;;4.60;99.90;;;;;;6372057;22;20018;-66
2024/04/24 04:27:03;;;;;;;11.88;1.58;;;4.60;99.90;;;;;;6370905;22;20348;-66
2024/04/24 04:29:30;;;;;;;11.18;2.03;;;4.70;99.90;;;;;;6370100;22;20288;-66
2024/04/24 04:31:55;;;;;;;9.88;1.40;;;4.60;99.90;;;;;;6371215;22;20018;-66
2024/04/24 04:34:21;;;;;;;8.10;1.00;;;4.70;99.90;;;;;;6372265;22;20003;-66
2024/04/24 04:36:47;;;;;;;6.22;0.98;;;4.70;99.90;;;;;;6370646;22;20000;-66
2024/04/24 04:39:13;;;;;;;15.30;2.35;;;4.80;99.90;;;;;;6370944;22;20003;-66
2024/04/24 04:41:38;;;;;;;8.25;1.83;;;4.90;99.90;;;;;;6369441;22;20003;-66
2024/04/24 04:44:04;;;;;;;11.27;2.40;;;4.90;99.90;;;;;;6369726;22;20000;-66
2024/04/24 04:46:30;;;;;;;7.10;1.13;;;4.90;99.90;;;;;;6371482;22;20070;-66
2024/04/24 04:48:56;;;;;;;9.18;1.45;;;4.90;99.90;;;;;;6371104;22;20003;-66
2024/04/24 04:51:21;;;;;;;8.10;2.38;;;5.00;99.90;;;;;;6370621;22;20570;-66
2024/04/24 04:53:47;;;;;;;9.13;2.22;;;5.00;99.90;;;;;;6371528;22;20007;-66
2024/04/24 04:56:13;;;;;;;13.02;1.58;;;5.10;99.90;;;;;;6372254;22;20055;-66
2024/04/24 04:58:38;;;;;;;7.00;1.40;;;5.10;99.90;;;;;;6371934;22;20021;-66
2024/04/24 05:01:04;;;;;;;10.43;1.52;;;5.10;99.90;;;;;;6369876;22;20003;-66
2024/04/24 05:03:30;;;;;;;7.57;1.40;;;5.20;99.90;;;;;;6372521;22;19999;-66
2024/04/24 05:05:56;;;;;;;9.27;1.50;;;5.20;99.90;;;;;;6371868;22;20296;-66
2024/04/24 05:08:22;;;;;;;7.88;0.88;;;5.20;99.90;;;;;;6370156;22;20013;-66
2024/04/24 05:10:48;;;;;;;11.98;2.25;;;5.20;99.90;;;;;;6371377;22;20004;-66
2024/04/24 05:13:16;;;;;;;11.90;2.65;;;5.30;99.90;;;;;;6372151;22;20462;-66
2024/04/24 05:15:42;;;;;;;11.27;1.30;;;5.80;99.90;;;;;;6372535;22;20010;-66
2024/04/24 05:18:08;;;;;;;10.02;1.67;;;5.30;99.90;;;;;;6370826;22;19999;-66
2024/04/24 05:20:33;;;;;;;8.90;1.63;;;5.30;99.90;;;;;;6369476;22;20082;-66
2024/04/24 05:23:00;;;;;;;9.63;1.77;;;5.40;99.90;;;;;;6371962;22;20003;-66
2024/04/24 05:25:31;;;;;;;7.97;1.00;;;5.40;99.90;;;;;;6371298;22;20314;-66
2024/04/24 05:30:42;;;;;;;3.20;0.60;;;5.40;99.90;;;;;;6373297;22;20424;-66
2024/04/24 05:33:08;;;;;;;3.47;0.35;;;5.30;99.90;;;;;;6371816;22;20018;-66
2024/04/24 05:35:34;;;;;;;1.50;0.30;;;5.20;99.90;;;;;;6374009;22;20322;-66
2024/04/24 05:37:59;;;;;;;2.78;0.40;;;5.20;99.90;;;;;;6371479;22;20011;-66
2024/04/24 05:40:25;;;;;;;1.52;0.30;;;5.00;99.90;;;;;;6373912;22;20000;-66
2024/04/24 05:42:51;;;;;;;3.67;0.30;;;5.00;99.90;;;;;;6373201;22;20088;-66
2024/04/24 05:45:17;;;;;;;4.85;1.05;;;5.00;99.90;;;;;;6373799;22;20038;-66
2024/04/24 05:47:42;;;;;;;2.40;0.20;;;5.00;99.90;;;;;;6371273;22;20014;-66
2024/04/24 05:50:08;;;;;;;3.72;0.50;;;5.10;99.90;;;;;;6372423;22;20014;-66
2024/04/24 05:52:34;;;;;;;0.80;0.10;;;5.10;99.90;;;;;;6374255;22;20003;-66
2024/04/24 05:54:59;;;;;;;3.13;0.43;;;5.20;99.90;;;;;;6371950;22;20075;-66
2024/04/24 05:57:25;;;;;;;2.10;0.30;;;5.20;99.90;;;;;;6373831;22;20318;-65
2024/04/24 05:59:51;;;;;;;2.47;0.30;;;5.20;99.90;;;;;;6369057;22;19999;-66
2024/04/24 06:02:17;;;;;;;4.88;0.30;;;5.20;99.90;;;;;;6369551;22;20003;-66
2024/04/24 06:04:46;;;;;;;3.75;0.40;;;5.30;99.90;;;;;;6367542;22;20006;-66
2024/04/24 06:07:12;;;;;;;2.53;0.30;;;5.20;99.90;;;;;;6369940;22;19999;-66
2024/04/24 06:09:39;;;;;;;1.77;0.82;;;5.30;99.90;;;;;;6367929;22;20000;-66
2024/04/24 06:12:05;;;;;;;1.92;0.50;;;5.30;99.90;;;;;;6370840;22;20009;-66
2024/04/24 06:14:31;;;;;;;2.10;0.32;;;5.40;99.90;;;;;;6367982;22;20014;-66
2024/04/24 06:16:57;;;;;;;2.90;0.30;;;5.40;99.90;;;;;;6367267;22;20387;-66
2024/04/24 06:19:22;;;;;;;2.90;0.47;;;5.40;99.90;;;;;;6327733;22;20340;-66
2024/04/24 06:21:48;;;;;;;3.38;0.50;;;5.50;99.90;;;;;;6372541;22;19999;-66
2024/04/24 06:24:14;;;;;;;4.35;0.68;;;5.50;99.90;;;;;;6371692;22;20494;-66
2024/04/24 06:26:40;;;;;;;3.03;0.50;;;5.60;99.90;;;;;;6372479;22;20003;-66
2024/04/24 06:29:06;;;;;;;5.63;0.50;;;5.60;99.90;;;;;;6371272;22;20003;-66
2024/04/24 06:31:33;;;;;;;5.88;1.05;;;5.60;99.90;;;;;;6371277;22;20007;-66
2024/04/24 06:33:59;;;;;;;4.03;0.60;;;6.00;99.90;;;;;;6372042;22;20315;-66
2024/04/24 06:36:24;;;;;;;5.03;0.68;;;6.70;99.90;;;;;;6372071;22;20042;-66
2024/04/24 06:38:51;;;;;;;3.97;0.57;;;7.60;99.90;;;;;;6370845;22;20051;-66
2024/04/24 06:41:17;;;;;;;3.40;0.82;;;8.50;99.90;;;;;;6371690;22;20086;-66
2024/04/24 06:43:43;;;;;;;4.75;0.80;;;9.30;99.90;;;;;;6370444;22;20039;-66
2024/04/24 06:46:08;;;;;;;4.72;1.17;;;10.10;99.90;;;;;;6371573;22;20003;-66
2024/04/24 06:48:34;;;;;;;7.05;1.42;;;10.70;99.90;;;;;;6371873;22;20003;-66
2024/04/24 06:51:00;;;;;;;4.03;0.73;;;11.20;99.90;;;;;;6371510;22;20438;-67
2024/04/24 06:53:26;;;;;;;4.38;0.70;;;11.50;99.90;;;;;;6370508;22;19999;-66
2024/04/24 06:55:52;;;;;;;5.22;0.70;;;11.60;99.90;;;;;;6372592;22;20000;-66
2024/04/24 06:58:18;;;;;;;4.38;0.98;;;11.50;99.90;;;;;;6371769;22;20442;-66
2024/04/24 07:00:43;;;;;;;3.63;0.68;;;11.30;99.90;;;;;;6372442;22;19999;-66
2024/04/24 07:03:09;;;;;;;4.32;0.55;;;10.90;99.90;;;;;;6372252;22;20007;-66
2024/04/24 07:05:35;;;;;;;5.10;0.57;;;10.60;99.90;;;;;;6372894;22;20069;-66
2024/04/24 07:08:01;;;;;;;3.35;0.82;;;10.50;99.90;;;;;;6371871;22;20576;-66
2024/04/24 07:10:27;;;;;;;4.63;0.43;;;10.60;99.90;;;;;;6371512;22;20011;-66
2024/04/24 07:12:53;;;;;;;3.05;0.30;;;11.00;99.90;;;;;;6372543;22;20441;-66
2024/04/24 07:15:18;;;;;;;4.43;1.20;;;11.40;99.90;;;;;;6373422;22;20003;-66
2024/04/24 07:17:44;;;;;;;4.10;0.52;;;11.80;99.90;;;;;;6372695;22;20007;-66
2024/04/24 07:20:09;;;;;;;3.33;0.45;;;12.10;99.90;;;;;;6373437;22;20003;-66
2024/04/24 07:22:35;;;;;;;4.20;0.50;;;12.40;99.90;;;;;;6373488;22;20043;-66
2024/04/24 07:25:01;;;;;;;4.10;0.52;;;12.60;99.90;;;;;;6373922;22;20357;-66
2024/04/24 07:27:27;;;;;;;3.40;0.57;;;12.80;99.90;;;;;;6372936;22;20225;-67
2024/04/24 07:29:52;;;;;;;2.30;0.45;;;12.60;99.90;;;;;;6370797;22;20000;-67
2024/04/24 07:32:19;;;;;;;1.95;0.55;;;12.50;99.90;;;;;;6371640;22;20423;-66
2024/04/24 07:34:44;;;;;;;2.28;0.47;;;11.80;99.90;;;;;;6365600;22;20003;-67
2024/04/24 07:37:10;;;;;;;3.47;0.50;;;11.10;99.90;;;;;;6362979;22;20207;-67
2024/04/24 07:39:36;;;;;;;3.08;0.65;;;10.70;99.90;;;;;;6367976;22;20003;-67
2024/04/24 07:42:01;;;;;;;2.42;0.80;;;10.30;99.90;;;;;;6371412;22;19999;-67
2024/04/24 07:44:27;;;;;;;7.20;0.82;;;9.80;99.90;;;;;;6371701;22;19999;-67
2024/04/24 07:46:53;;;;;;;2.83;0.38;;;9.40;99.90;;;;;;6371893;22;20336;-67
2024/04/24 07:49:18;;;;;;;1.70;0.20;;;9.20;99.90;;;;;;6370774;22;20010;-67
2024/04/24 07:51:44;;;;;;;1.58;0.30;;;8.90;99.90;;;;;;6371271;22;20082;-66
2024/04/24 07:54:10;;;;;;;4.55;0.30;;;8.80;99.90;;;;;;6370388;22;20003;-66
2024/04/24 07:56:35;;;;;;;1.65;0.30;;;8.70;99.90;;;;;;6370106;22;20015;-66
2024/04/24 07:59:01;;;;;;;3.97;0.30;;;8.60;99.90;;;;;;6367719;22;20308;-67
2024/04/24 08:01:27;;;;;;;4.00;0.57;;;8.50;99.90;;;;;;6368035;22;20387;-66
2024/04/24 08:03:53;;;;;;;3.38;0.55;;;8.70;99.90;;;;;;6370874;22;20011;-66
2024/04/24 08:06:19;;;;;;;1.58;0.30;;;9.10;99.90;;;;;;6371917;22;20011;-66
2024/04/24 08:08:44;;;;;;;2.25;0.40;;;9.70;99.90;;;;;;6371306;22;20003;-66
2024/04/24 08:11:10;;;;;;;2.30;0.40;;;10.20;99.90;;;;;;6372184;22;20003;-67
2024/04/24 08:13:36;;;;;;;3.08;0.57;;;10.70;99.90;;;;;;6329920;22;20079;-66
2024/04/24 08:16:01;;;;;;;4.13;0.65;;;10.90;99.90;;;;;;6373299;22;19999;-66
2024/04/24 08:18:27;;;;;;;3.30;0.60;;;10.90;99.90;;;;;;6371768;22;20300;-66
2024/04/24 08:20:54;;;;;;;2.20;0.40;;;10.60;99.90;;;;;;6367338;22;20003;-66
2024/04/24 08:23:20;;;;;;;1.65;0.30;;;10.30;99.90;;;;;;6371157;22;20014;-66
2024/04/24 08:25:46;;;;;;;4.88;0.38;;;10.00;99.90;;;;;;6371784;22;20626;-66
2024/04/24 08:28:11;;;;;;;1.00;0.30;;;9.80;99.90;;;;;;6369482;22;20003;-66
2024/04/24 08:30:37;;;;;;;3.85;0.55;;;9.60;99.90;;;;;;6370873;22;20003;-66
2024/04/24 08:33:04;;;;;;;6.03;0.65;;;9.50;99.90;;;;;;6371563;22;20027;-66
2024/04/24 08:35:29;;;;;;;6.07;0.40;;;9.30;99.90;;;;;;6371939;22;20003;-66
2024/04/24 08:37:55;;;;;;;3.40;0.55;;;9.10;99.90;;;;;;6371521;22;20025;-67
2024/04/24 08:40:21;;;;;;;2.30;0.40;;;9.10;99.90;;;;;;6369390;22;20013;-66
2024/04/24 08:42:47;;;;;;;2.60;0.20;;;9.20;99.90;;;;;;6372104;22;20003;-66
2024/04/24 08:45:16;;;;;;;2.88;0.30;;;9.30;99.90;;;;;;6372584;22;20289;-66
2024/04/24 08:47:42;;;;;;;5.82;0.50;;;9.40;99.90;;;;;;6371779;22;20011;-66
2024/04/24 08:50:09;;;;;;;3.80;0.70;;;9.60;99.90;;;;;;6370702;22;19996;-66
2024/04/24 08:52:39;;;;;;;4.43;0.50;;;9.50;99.90;;;;;;6372143;22;20082;-66
2024/04/24 08:55:05;;;;;;;4.75;0.43;;;9.50;99.90;;;;;;6371826;22;20018;-66
2024/04/24 08:57:32;;;;;;;1.50;0.40;;;9.50;99.90;;;;;;6371842;22;20011;-66
2024/04/24 09:00:01;;;;;;;2.70;0.30;;;9.50;99.90;;;;;;6371293;22;20003;-66
2024/04/24 09:02:32;;;;;;;4.55;0.50;;;9.50;99.90;;;;;;6372587;22;20322;-66
2024/04/24 09:04:59;;;;;;;2.17;0.40;;;9.50;99.90;;;;;;6373502;22;20095;-66
2024/04/24 09:07:25;;;;;;;3.92;0.65;;;9.50;99.90;;;;;;6372177;22;20014;-66
2024/04/24 09:09:53;;;;;;;4.63;0.70;;;9.50;99.90;;;;;;6371317;22;20054;-67
2024/04/24 09:12:20;;;;;;;4.97;0.60;;;9.40;99.90;;;;;;6372443;22;20059;-67
2024/04/24 09:14:46;;;;;;;4.13;0.75;;;9.40;99.90;;;;;;6369856;22;20003;-67
2024/04/24 09:17:12;;;;;;;3.58;0.82;;;9.40;99.90;;;;;;6369904;22;20242;-67
2024/04/24 09:19:39;;;;;;;3.10;0.52;;;9.40;99.90;;;;;;6370604;22;20146;-67
2024/04/24 09:22:05;;;;;;;2.78;0.40;;;9.30;99.90;;;;;;6369802;22;20007;-67
2024/04/24 09:24:32;;;;;;;4.15;1.17;;;9.40;99.90;;;;;;6372889;22;20031;-66
2024/04/24 09:26:58;;;;;;;3.80;0.75;;;9.60;99.90;;;;;;6370926;22;20532;-66
2024/04/24 09:29:24;;;;;;;4.10;0.75;;;10.00;99.90;;;;;;6371549;22;20003;-66
2024/04/24 09:31:49;;;;;;;4.82;1.38;;;10.40;99.90;;;;;;6370866;22;20014;-66
2024/04/24 09:34:16;;;;;;;7.00;0.50;;;10.80;99.90;;;;;;6372690;22;20043;-66
2024/04/24 09:36:42;;;;;;;4.07;0.70;;;10.80;99.90;;;;;;6373991;22;20413;-67
2024/04/24 09:39:15;;;;;;;5.22;1.38;;;10.80;99.90;;;;;;6370635;22;20014;-67
2024/04/24 09:41:47;;;;;;;1.45;0.10;;;10.00;99.90;;;;;;6371873;22;20003;-67
2024/04/24 09:44:13;;;;;;;0.75;0.10;;;9.70;99.90;;;;;;6371396;22;20014;-67
2024/04/24 09:46:47;;;;;;;0.90;0.20;;;9.70;99.90;;;;;;6371219;22;20003;-67
2024/04/24 09:49:13;;;;;;;1.35;0.10;;;10.10;99.90;;;;;;6368036;22;20003;-67
2024/04/24 09:51:40;;;;;;;2.10;0.20;;;10.60;99.90;;;;;;6371927;22;20003;-67
2024/04/24 09:54:06;;;;;;;1.90;0.30;;;11.00;99.90;;;;;;6370548;22;20003;-67
2024/04/24 09:56:40;;;;;;;2.45;0.20;;;11.10;99.90;;;;;;6372446;22;20007;-67
2024/04/24 09:59:08;;;;;;;1.73;0.30;;;11.00;99.90;;;;;;6370712;22;20003;-66
2024/04/24 10:01:37;;;;;;;5.40;1.13;;;10.90;99.90;;;;;;6370729;22;20240;-67
2024/04/24 10:04:03;;;;;;;4.35;0.60;;;10.60;99.90;;;;;;6370016;22;20078;-66
2024/04/24 10:06:32;;;;;;;2.92;0.40;;;10.40;99.90;;;;;;6371398;22;20007;-66
2024/04/24 10:09:00;;;;;;;3.95;0.55;;;10.00;99.90;;;;;;6370350;22;20033;-67
2024/04/24 10:11:33;;;;;;;2.40;0.30;;;9.80;99.90;;;;;;6370509;22;20014;-67
2024/04/24 10:13:59;;;;;;;2.25;0.52;;;9.60;99.90;;;;;;6368573;22;20311;-67
2024/04/24 10:16:26;;;;;;;4.30;0.68;;;9.40;99.90;;;;;;6371976;22;20007;-67
2024/04/24 10:18:54;;;;;;;6.18;0.60;;;9.20;99.90;;;;;;6372684;22;20015;-66
2024/04/24 10:21:21;;;;;;;3.42;0.40;;;9.10;99.90;;;;;;6371016;22;20315;-66
2024/04/24 10:23:47;;;;;;;2.95;0.32;;;8.90;99.90;;;;;;6372439;22;20014;-67
2024/04/24 10:26:15;;;;;;;2.80;0.82;;;9.00;99.90;;;;;;6371358;22;20003;-66
2024/04/24 10:28:42;;;;;;;2.72;0.30;;;9.40;99.90;;;;;;6372311;22;20015;-66
2024/04/24 10:31:08;;;;;;;1.40;0.20;;;9.80;99.90;;;;;;6370382;22;20011;-67
2024/04/24 10:33:35;;;;;;;1.40;0.20;;;10.00;99.90;;;;;;6372097;22;20003;-66
2024/04/24 10:36:03;;;;;;;2.47;0.30;;;9.90;99.90;;;;;;6371927;22;20007;-67
2024/04/24 10:38:32;;;;;;;1.48;0.10;;;9.90;99.90;;;;;;6370147;22;20014;-66
2024/04/24 10:40:58;;;;;;;1.27;0.20;;;10.00;99.90;;;;;;6371518;22;20074;-66
2024/04/24 10:43:26;;;;;;;0.50;0.10;;;10.40;99.90;;;;;;6372743;22;20091;-66
2024/04/24 10:45:54;;;;;;;1.65;0.28;;;10.80;99.90;;;;;;6373654;22;20211;-67
2024/04/24 10:48:20;;;;;;;1.38;0.17;;;11.40;99.90;;;;;;6371137;22;20010;-66
2024/04/24 10:50:50;;;;;;;2.28;0.60;;;12.20;99.90;;;;;;6372580;22;20007;-67
2024/04/24 10:53:18;;;;;;;1.85;0.20;;;12.90;99.90;;;;;;6371530;22;20051;-67
2024/04/24 10:55:57;;;;;;;4.95;0.32;;;13.30;99.90;;;;;;6373173;22;20010;-67
2024/04/24 10:58:23;;;;;;;2.70;0.20;;;13.60;99.90;;;;;;6371087;22;20010;-67
2024/04/24 11:00:49;;;;;;;1.80;0.70;;;13.70;99.90;;;;;;6372319;22;20003;-67
2024/04/24 11:03:16;;;;;;;3.17;0.30;;;13.70;99.90;;;;;;6369819;22;20004;-66
2024/04/24 11:05:42;;;;;;;2.53;0.50;;;13.50;99.90;;;;;;6373158;22;20007;-67
2024/04/24 11:08:15;;;;;;;1.98;0.35;;;13.00;99.90;;;;;;6372438;22;20104;-66
2024/04/24 11:10:48;;;;;;;4.68;0.50;;;12.60;99.90;;;;;;6369898;22;20691;-67
2024/04/24 11:13:14;;;;;;;6.68;0.20;;;12.00;99.90;;;;;;6372790;22;20013;-67
2024/04/24 11:15:39;;;;;;;3.70;0.30;;;11.40;99.90;;;;;;6372833;22;20003;-67
2024/04/24 11:18:05;;;;;;;2.78;0.28;;;10.80;99.90;;;;;;6371596;22;20325;-67
2024/04/24 11:20:36;;;;;;;2.35;0.30;;;10.50;99.90;;;;;;6371071;22;20425;-66
2024/04/24 11:23:07;;;;;;;3.78;0.30;;;10.20;99.90;;;;;;6372288;22;20013;-66
2024/04/24 11:25:33;;;;;;;3.25;0.32;;;10.00;99.90;;;;;;6371610;22;20003;-66
2024/04/24 11:27:59;;;;;;;2.45;0.30;;;10.00;99.90;;;;;;6371920;22;20439;-66
2024/04/24 11:30:24;;;;;;;1.98;0.25;;;10.20;99.90;;;;;;6370493;22;20014;-66
2024/04/24 11:32:52;;;;;;;5.07;0.45;;;10.50;99.90;;;;;;6372495;22;20315;-66
2024/04/24 11:35:24;;;;;;;2.60;0.70;;;10.50;99.90;;;;;;6372708;22;20017;-66
2024/04/24 11:37:51;;;;;;;3.22;0.20;;;10.60;99.90;;;;;;6371089;22;20013;-66
2024/04/24 11:40:18;;;;;;;1.67;0.20;;;10.90;99.90;;;;;;6370434;22;20100;-67
2024/04/24 11:42:48;;;;;;;4.05;0.35;;;11.20;99.90;;;;;;6369798;22;20017;-67
2024/04/24 11:45:20;;;;;;;1.98;0.30;;;11.40;99.90;;;;;;6369774;22;20339;-67
2024/04/24 11:47:50;;;;;;;4.40;0.73;;;11.50;99.90;;;;;;6371835;22;20418;-67
2024/04/24 11:50:20;;;;;;;1.63;0.20;;;11.30;99.90;;;;;;6368121;22;20067;-66
2024/04/24 11:52:46;;;;;;;2.13;0.22;;;11.60;99.90;;;;;;6370861;22;20517;-67
2024/04/24 11:55:12;;;;;;;3.47;0.30;;;11.90;99.90;;;;;;6373587;22;20311;-67
2024/04/24 11:57:39;;;;;;;4.53;0.68;;;11.80;99.90;;;;;;6372667;22;20056;-67
2024/04/24 12:00:06;;;;;;;1.08;0.28;;;11.60;99.90;;;;;;6373408;22;20510;-67
2024/04/24 12:02:33;;;;;;;3.03;0.52;;;11.40;99.90;;;;;;6371891;22;20043;-67
2024/04/24 12:05:04;;;;;;;3.53;0.68;;;10.90;99.90;;;;;;6371297;22;19999;-67
2024/04/24 12:07:30;;;;;;;4.07;0.57;;;10.70;99.90;;;;;;6370999;22;19999;-67
2024/04/24 12:09:56;;;;;;;2.97;0.50;;;10.40;99.90;;;;;;6371273;22;20011;-66
2024/04/24 12:12:23;;;;;;;3.38;1.00;;;10.30;99.90;;;;;;6372717;22;20000;-66
2024/04/24 12:14:55;;;;;;;3.55;0.40;;;10.30;99.90;;;;;;6371944;22;20003;-66
2024/04/24 12:17:21;;;;;;;2.75;0.70;;;10.40;99.90;;;;;;6374185;22;20018;-66
2024/04/24 12:19:46;;;;;;;2.70;0.35;;;10.50;99.90;;;;;;6373505;22;20011;-67
2024/04/24 12:22:13;;;;;;;6.68;0.73;;;10.70;99.90;;;;;;6372261;22;20003;-67
2024/04/24 12:24:39;;;;;;;4.07;0.68;;;10.70;99.90;;;;;;6372208;22;20055;-67
2024/04/24 12:27:05;;;;;;;5.53;0.95;;;10.70;99.90;;;;;;6371912;22;20103;-67
2024/04/24 12:29:31;;;;;;;3.28;0.60;;;10.70;99.90;;;;;;6372232;22;20439;-67
2024/04/24 12:31:57;;;;;;;5.07;0.40;;;11.10;99.90;;;;;;6373586;22;20003;-67
2024/04/24 12:34:24;;;;;;;2.30;0.40;;;11.40;99.90;;;;;;6373641;22;20011;-67
2024/04/24 12:36:51;;;;;;;4.97;0.50;;;11.70;99.90;;;;;;6372105;22;20003;-66
2024/04/24 12:39:17;;;;;;;2.95;0.50;;;12.30;99.90;;;;;;6373042;22;19999;-66
2024/04/24 12:41:42;;;;;;;4.40;0.60;;;12.30;99.90;;;;;;6372981;22;20427;-66
2024/04/24 12:44:08;;;;;;;3.55;0.57;;;12.30;99.90;;;;;;6373379;22;20014;-66
2024/04/24 12:46:34;;;;;;;5.00;0.70;;;12.20;99.90;;;;;;6371503;22;20003;-66
2024/04/24 12:49:02;;;;;;;4.45;0.55;;;11.80;99.90;;;;;;6372784;22;20009;-66
2024/04/24 12:51:28;;;;;;;1.73;0.30;;;11.60;99.90;;;;;;6372468;22;20318;-66
2024/04/24 12:53:54;;;;;;;4.63;0.40;;;11.90;99.90;;;;;;6328213;22;19999;-66
2024/04/24 12:56:20;;;;;;;2.35;0.43;;;11.80;99.90;;;;;;6373609;22;20311;-66
2024/04/24 12:58:46;;;;;;;3.40;0.57;;;12.00;99.90;;;;;;6372759;22;20010;-66
2024/04/24 13:01:18;;;;;;;7.25;0.55;;;12.00;99.90;;;;;;6373720;22;20003;-66
2024/04/24 13:03:44;;;;;;;4.57;1.00;;;12.00;99.90;;;;;;6372229;22;20010;-66
2024/04/24 13:06:11;;;;;;;4.07;0.65;;;12.00;99.90;;;;;;6373017;22;20027;-66
2024/04/24 13:08:37;;;;;;;2.85;0.80;;;12.00;99.90;;;;;;6371226;22;20328;-66
2024/04/24 13:11:03;;;;;;;3.00;0.40;;;11.90;99.90;;;;;;6371809;22;20039;-66
2024/04/24 13:13:29;;;;;;;1.60;0.30;;;11.50;99.90;;;;;;6372138;22;20028;-66
2024/04/24 13:15:55;;;;;;;2.58;0.60;;;11.50;99.90;;;;;;6372478;22;20390;-66
2024/04/24 13:18:20;;;;;;;5.38;0.93;;;11.30;99.90;;;;;;6373997;22;20017;-66
2024/04/24 13:20:46;;;;;;;3.38;0.57;;;11.10;99.90;;;;;;6373723;22;19999;-66
2024/04/24 13:23:12;;;;;;;4.60;0.85;;;11.00;99.90;;;;;;6374134;22;20004;-66
2024/04/24 13:25:40;;;;;;;2.75;0.40;;;10.90;99.90;;;;;;6373712;22;20003;-66
2024/04/24 13:28:05;;;;;;;6.13;0.80;;;11.20;99.90;;;;;;6374000;22;20003;-66
2024/04/24 13:30:31;;;;;;;5.40;0.60;;;11.50;99.90;;;;;;6373615;22;20018;-66
2024/04/24 13:32:57;;;;;;;2.03;0.47;;;11.40;99.90;;;;;;6373733;22;20018;-66
2024/04/24 13:35:22;;;;;;;5.20;0.60;;;11.30;99.90;;;;;;6374222;22;20407;-66
2024/04/24 13:37:48;;;;;;;2.67;0.40;;;11.10;99.90;;;;;;6373178;22;20003;-66
2024/04/24 13:40:14;;;;;;;6.13;0.80;;;11.20;99.90;;;;;;6373925;22;20003;-66
2024/04/24 13:42:39;;;;;;;4.90;0.80;;;10.90;99.90;;;;;;6373735;22;20083;-66
2024/04/24 13:45:05;;;;;;;4.03;0.68;;;10.60;99.90;;;;;;6330420;22;20423;-66
2024/04/24 13:47:31;;;;;;;5.03;0.93;;;10.40;99.90;;;;;;6373841;22;20039;-66
2024/04/24 13:49:57;;;;;;;3.38;0.68;;;10.20;99.90;;;;;;6373914;22;20003;-66
2024/04/24 13:52:22;;;;;;;4.07;0.80;;;10.00;99.90;;;;;;6376070;22;20014;-66
2024/04/24 13:54:48;;;;;;;3.30;0.70;;;9.90;99.90;;;;;;6375716;22;20075;-66
2024/04/24 13:57:14;;;;;;;1.95;0.30;;;9.80;99.90;;;;;;6375183;22;20014;-66
2024/04/24 13:59:40;;;;;;;3.97;0.95;;;9.70;99.90;;;;;;6375253;22;20003;-66
2024/04/24 14:02:06;;;;;;;1.95;0.30;;;9.70;99.90;;;;;;6376103;22;20011;-66
2024/04/24 14:04:32;;;;;;;1.30;0.25;;;9.80;99.90;;;;;;6375624;22;19999;-67
2024/04/24 14:06:58;;;;;;;1.80;0.40;;;9.80;99.90;;;;;;6375881;22;20018;-66
2024/04/24 14:09:25;;;;;;;5.40;0.70;;;10.10;99.90;;;;;;6375762;22;20407;-66